createdAt,value
2024-02-03T00:02:14.001Z,9.40
2024-02-03T00:07:06.148Z,9.50
2024-02-03T00:11:58.414Z,9.50
2024-02-03T00:16:53.809Z,9.60
2024-02-03T00:21:46.029Z,9.60
2024-02-03T00:26:38.165Z,9.60
2024-02-03T00:31:30.508Z,9.60
2024-02-03T00:36:23.885Z,9.50
2024-02-03T00:41:16.138Z,9.60
2024-02-03T00:46:08.262Z,9.60
2024-02-03T00:51:00.449Z,9.60
2024-02-03T00:55:52.540Z,9.50
2024-02-03T01:00:45.064Z,9.60
2024-02-03T01:05:38.555Z,9.60
2024-02-03T01:10:30.864Z,9.50
2024-02-03T01:15:25.453Z,9.60
2024-02-03T01:20:17.689Z,9.70
2024-02-03T01:25:10.041Z,9.60
2024-02-03T01:30:02.201Z,9.60
2024-02-03T01:34:55.521Z,9.70
2024-02-03T01:39:47.728Z,9.80
2024-02-03T01:44:39.936Z,9.80
2024-02-03T01:49:33.720Z,9.80
2024-02-03T01:54:29.041Z,10.00
2024-02-03T01:59:22.208Z,10.00
2024-02-03T02:04:14.531Z,10.10
2024-02-03T02:09:07.404Z,10.20
2024-02-03T02:13:59.917Z,10.10
2024-02-03T02:18:52.499Z,10.10
2024-02-03T02:23:44.683Z,10.10
2024-02-03T02:28:39.844Z,10.10
2024-02-03T02:33:32.458Z,10.20
2024-02-03T02:38:24.635Z,10.20
2024-02-03T02:43:16.701Z,10.20
2024-02-03T02:48:09.127Z,10.20
2024-02-03T02:53:01.295Z,10.30
2024-02-03T02:57:53.484Z,10.30
2024-02-03T03:02:45.657Z,10.30
2024-02-03T03:07:37.829Z,10.20
2024-02-03T03:12:30.176Z,10.30
2024-02-03T03:17:22.428Z,10.20
2024-02-03T03:22:14.890Z,10.20
2024-02-03T03:27:07.018Z,10.30
2024-02-03T03:31:59.123Z,10.40
2024-02-03T03:36:51.342Z,10.30
2024-02-03T03:41:43.406Z,10.30
2024-02-03T03:46:35.496Z,10.30
2024-02-03T03:51:27.508Z,10.30
2024-02-03T03:56:19.695Z,10.40
2024-02-03T04:01:12.366Z,10.30
2024-02-03T04:06:05.611Z,10.30
2024-02-03T04:10:57.787Z,10.40
2024-02-03T04:15:50.143Z,10.40
2024-02-03T04:20:42.275Z,10.40
2024-02-03T04:25:34.338Z,10.40
2024-02-03T04:30:26.439Z,10.40
2024-02-03T04:35:18.588Z,10.40
2024-02-03T04:40:11.190Z,10.40
2024-02-03T04:45:04.795Z,10.40
2024-02-03T04:49:58.473Z,10.50
2024-02-03T04:54:50.744Z,10.40
2024-02-03T04:59:42.788Z,10.40
2024-02-03T05:04:34.954Z,10.40
2024-02-03T05:09:27.599Z,10.50
2024-02-03T05:14:19.748Z,10.40
2024-02-03T05:19:13.484Z,10.40
2024-02-03T05:24:06.279Z,10.40
2024-02-03T05:28:58.281Z,10.50
2024-02-03T05:33:50.452Z,10.40
2024-02-03T05:38:42.664Z,10.40
2024-02-03T05:43:34.879Z,10.30
2024-02-03T05:48:27.214Z,10.30
2024-02-03T05:53:19.373Z,10.30
2024-02-03T05:58:11.510Z,10.30
2024-02-03T06:03:03.599Z,10.40
2024-02-03T06:07:55.988Z,10.30
2024-02-03T06:12:48.192Z,10.40
2024-02-03T06:17:40.402Z,10.50
2024-02-03T06:22:32.663Z,10.40
2024-02-03T06:27:24.911Z,10.40
2024-02-03T06:32:16.948Z,10.40
2024-02-03T06:37:10.232Z,10.40
2024-02-03T06:42:02.433Z,10.40
2024-02-03T06:46:54.475Z,10.30
2024-02-03T06:51:46.663Z,10.40
2024-02-03T06:56:38.794Z,10.40
2024-02-03T07:01:30.772Z,10.40
2024-02-03T07:06:22.958Z,10.40
2024-02-03T07:11:15.052Z,10.40
2024-02-03T07:16:07.493Z,10.40
2024-02-03T07:20:59.559Z,10.40
2024-02-03T07:25:51.656Z,10.40
2024-02-03T07:30:43.836Z,10.40
2024-02-03T07:35:36.261Z,10.40
2024-02-03T07:40:28.356Z,10.40
2024-02-03T07:45:21.093Z,10.50
2024-02-03T07:50:15.282Z,10.50
2024-02-03T07:55:08.431Z,10.60
2024-02-03T08:00:00.576Z,10.60
2024-02-03T08:04:54.629Z,10.60
2024-02-03T08:09:46.863Z,10.60
2024-02-03T08:14:38.981Z,10.60
2024-02-03T08:19:31.191Z,10.70
2024-02-03T08:24:23.373Z,10.70
2024-02-03T08:29:15.543Z,10.80
2024-02-03T08:34:07.723Z,10.80
2024-02-03T08:38:59.913Z,10.90
2024-02-03T08:43:52.117Z,11.00
2024-02-03T08:48:44.368Z,11.00
2024-02-03T08:53:36.848Z,10.90
2024-02-03T08:58:31.015Z,11.00
2024-02-03T09:03:23.988Z,10.90
2024-02-03T09:08:16.145Z,11.00
2024-02-03T09:13:08.261Z,11.10
2024-02-03T09:18:00.347Z,11.30
2024-02-03T09:22:52.455Z,11.40
2024-02-03T09:27:44.596Z,11.60
2024-02-03T09:32:36.776Z,11.70
2024-02-03T09:42:25.382Z,11.60
2024-02-03T09:47:19.102Z,11.70
2024-02-03T09:52:15.320Z,11.70
2024-02-03T09:57:07.405Z,11.70
2024-02-03T10:02:00.528Z,11.70
2024-02-03T10:07:01.524Z,11.80
2024-02-03T10:11:54.168Z,12.10
2024-02-03T10:16:49.820Z,12.10
2024-02-03T10:21:42.021Z,12.00
2024-02-03T10:26:34.282Z,12.10
2024-02-03T10:31:26.372Z,12.10
2024-02-03T10:36:18.436Z,12.10
2024-02-03T10:41:14.969Z,12.10
2024-02-03T10:46:07.944Z,12.10
2024-02-03T10:51:06.610Z,12.10
2024-02-03T10:56:05.759Z,12.10
2024-02-03T11:00:59.004Z,12.30
2024-02-03T11:05:57.427Z,12.30
2024-02-03T11:10:51.469Z,12.40
2024-02-03T11:15:44.836Z,12.50
2024-02-03T11:20:40.930Z,12.60
2024-02-03T11:25:33.353Z,12.70
2024-02-03T11:30:25.420Z,12.70
2024-02-03T11:35:19.552Z,12.80
2024-02-03T11:40:12.141Z,13.00
2024-02-03T11:45:05.931Z,13.00
2024-02-03T11:49:59.470Z,12.90
2024-02-03T11:54:52.601Z,12.80
2024-02-03T11:59:47.180Z,12.60
2024-02-03T12:04:39.572Z,12.40
2024-02-03T12:09:31.751Z,12.30
2024-02-03T12:14:23.836Z,12.20
2024-02-03T12:19:16.505Z,12.00
2024-02-03T12:24:09.823Z,12.00
2024-02-03T12:29:03.253Z,12.00
2024-02-03T12:33:55.731Z,12.30
2024-02-03T12:38:48.211Z,12.50
2024-02-03T12:43:40.567Z,12.60
2024-02-03T12:48:32.921Z,12.70
2024-02-03T12:53:25.129Z,12.70
2024-02-03T12:58:17.928Z,12.60
2024-02-03T13:03:14.640Z,12.70
2024-02-03T13:08:07.248Z,12.80
2024-02-03T13:12:59.346Z,12.90
2024-02-03T13:17:51.666Z,13.00
2024-02-03T13:22:44.035Z,13.00
2024-02-03T13:27:36.425Z,12.90
2024-02-03T13:32:28.513Z,12.70
2024-02-03T13:37:20.897Z,12.60
2024-02-03T13:42:12.953Z,12.50
2024-02-03T13:47:06.603Z,12.50
2024-02-03T13:51:58.671Z,12.50
2024-02-03T13:56:50.871Z,12.80
2024-02-03T14:01:43.227Z,13.20
2024-02-03T14:06:35.412Z,13.60
2024-02-03T14:11:41.448Z,14.00
2024-02-03T14:16:39.461Z,14.10
2024-02-03T14:21:32.596Z,14.00
2024-02-03T14:26:27.140Z,13.90
2024-02-03T14:31:19.079Z,13.70
2024-02-03T14:36:11.269Z,13.40
2024-02-03T14:41:06.445Z,13.10
2024-02-03T14:46:00.832Z,13.00
2024-02-03T14:50:53.046Z,12.80
2024-02-03T14:55:45.298Z,12.70
2024-02-03T15:00:37.423Z,12.60
2024-02-03T15:05:29.609Z,12.50
2024-02-03T15:10:21.703Z,12.30
2024-02-03T15:15:13.838Z,12.20
2024-02-03T15:20:06.588Z,12.10
2024-02-03T15:25:01.292Z,12.00
2024-02-03T15:29:53.480Z,11.90
2024-02-03T15:34:50.497Z,11.80
2024-02-03T15:39:43.093Z,11.70
2024-02-03T15:44:41.628Z,11.60
2024-02-03T15:49:39.228Z,11.50
2024-02-03T15:54:31.382Z,11.40
2024-02-03T15:59:23.751Z,11.20
2024-02-03T16:04:16.084Z,11.10
2024-02-03T16:09:08.327Z,10.90
2024-02-03T16:14:00.969Z,10.70
2024-02-03T16:18:53.488Z,10.80
2024-02-03T16:23:45.586Z,10.70
2024-02-03T16:28:40.237Z,10.70
2024-02-03T16:33:35.054Z,10.70
2024-02-03T16:38:27.253Z,10.70
2024-02-03T16:43:19.461Z,10.70
2024-02-03T16:48:11.846Z,10.70
2024-02-03T16:53:04.172Z,10.80
2024-02-03T16:57:56.241Z,10.80
2024-02-03T17:02:48.348Z,10.80
2024-02-03T17:07:40.626Z,10.90
2024-02-03T17:12:32.813Z,10.90
2024-02-03T17:17:24.994Z,10.80
2024-02-03T17:22:16.993Z,10.80
2024-02-03T17:27:09.193Z,10.60
2024-02-03T17:32:01.295Z,10.60
2024-02-03T17:36:53.438Z,10.30
2024-02-03T17:41:45.536Z,10.10
2024-02-03T17:46:37.590Z,10.20
2024-02-03T17:51:30.465Z,10.30
2024-02-03T17:56:22.712Z,10.30
2024-02-03T18:01:15.048Z,10.30
2024-02-03T18:06:07.465Z,10.40
2024-02-03T18:11:00.854Z,10.40
2024-02-03T18:15:54.074Z,10.40
2024-02-03T18:20:46.439Z,10.40
2024-02-03T18:25:39.576Z,10.40
2024-02-03T18:30:31.808Z,10.40
2024-02-03T18:35:23.936Z,10.40
2024-02-03T18:40:15.938Z,10.40
2024-02-03T18:45:09.812Z,10.40
2024-02-03T18:50:01.874Z,10.50
2024-02-03T18:54:55.295Z,10.60
2024-02-03T18:59:47.479Z,10.50
2024-02-03T19:04:39.610Z,10.50
2024-02-03T19:09:34.295Z,10.50
2024-02-03T19:14:26.592Z,10.50
2024-02-03T19:19:18.754Z,10.40
2024-02-03T19:24:10.757Z,10.40
2024-02-03T19:29:02.869Z,10.40
2024-02-03T19:33:56.976Z,10.50
2024-02-03T19:38:49.179Z,10.40
2024-02-03T19:43:41.236Z,10.40
2024-02-03T19:48:34.390Z,10.40
2024-02-03T19:53:26.691Z,10.50
2024-02-03T19:58:19.901Z,10.50
2024-02-03T20:03:12.005Z,10.50
2024-02-03T20:08:05.066Z,10.50
2024-02-03T20:12:57.446Z,10.50
2024-02-03T20:17:50.011Z,10.60
2024-02-03T20:22:42.168Z,10.70
2024-02-03T20:27:34.511Z,10.70
2024-02-03T20:32:26.642Z,10.70
2024-02-03T20:37:18.813Z,10.80
2024-02-03T20:42:13.137Z,10.80
2024-02-03T20:47:06.197Z,10.80
2024-02-03T20:51:58.494Z,10.90
2024-02-03T20:56:50.586Z,10.80
2024-02-03T21:01:42.850Z,10.80
2024-02-03T21:06:37.727Z,10.80
2024-02-03T21:11:37.077Z,10.90
2024-02-03T21:16:29.620Z,10.70
2024-02-03T21:21:25.868Z,10.60
2024-02-03T21:26:18.096Z,10.50
2024-02-03T21:31:10.154Z,10.50
2024-02-03T21:36:02.346Z,10.50
2024-02-03T21:40:54.396Z,10.50
2024-02-03T21:45:46.555Z,10.50
2024-02-03T21:50:38.588Z,10.50
2024-02-03T21:55:30.617Z,10.50
2024-02-03T22:00:22.677Z,10.50
2024-02-03T22:05:14.891Z,10.50
2024-02-03T22:10:07.640Z,10.40
2024-02-03T22:15:02.793Z,10.40
2024-02-03T22:19:55.002Z,10.30
2024-02-03T22:24:47.175Z,10.30
2024-02-03T22:29:39.286Z,10.20
2024-02-03T22:34:32.031Z,10.20
2024-02-03T22:39:24.410Z,10.20
2024-02-03T22:44:16.546Z,10.20
2024-02-03T22:49:08.714Z,10.20
2024-02-03T22:54:00.954Z,10.20
2024-02-03T22:58:53.005Z,10.00
2024-02-03T23:03:45.494Z,10.00
2024-02-03T23:08:37.859Z,10.00
2024-02-03T23:13:30.132Z,10.10
2024-02-03T23:18:22.354Z,10.10
2024-02-03T23:23:15.436Z,10.10
2024-02-03T23:28:07.631Z,10.10
2024-02-03T23:32:59.781Z,10.20
2024-02-03T23:37:52.085Z,10.20
2024-02-03T23:42:44.116Z,10.20
2024-02-03T23:47:36.172Z,10.30
2024-02-03T23:52:28.265Z,10.30
2024-02-03T23:57:20.394Z,10.20
